Time;durP1;ratioP1;P1;durP2;ratioP2;P2;SDS_P1;SDS_P2;PMS_P1;PMS_P2;Temp;Humidity;BMP_temperature;BMP_pressure;BME280_temperature;BME280_humidity;BME280_pressure;Samples;Min_cycle;Max_cycle;Signal;HPM_P1;HPM_P2
2022/08/21 00:01:20;;;;;;;;;8.00;3.00;;;;;20.24;52.31;100936.28;5069542;27;46122;-76
2022/08/21 00:03:46;;;;;;;;;3.75;3.75;;;;;20.26;52.28;100937.03;5073543;27;45387;-75
2022/08/21 00:06:11;;;;;;;;;6.75;4.75;;;;;20.20;52.40;100921.28;5076865;27;45354;-75
2022/08/21 00:08:37;;;;;;;;;3.25;3.25;;;;;20.26;52.33;100926.31;5074262;27;45441;-75
2022/08/21 00:11:03;;;;;;;;;7.75;3.50;;;;;20.19;52.53;100920.44;5076731;27;46233;-74
2022/08/21 00:13:29;;;;;;;;;2.25;2.25;;;;;20.16;52.70;100919.72;5091146;27;45578;-75
2022/08/21 00:15:54;;;;;;;;;4.75;4.50;;;;;20.10;52.86;100928.94;5073757;27;45452;-76
2022/08/21 00:18:23;;;;;;;;;2.00;2.00;;;;;20.05;52.84;100922.97;5076113;27;45413;-76
2022/08/21 00:20:49;;;;;;;;;7.75;4.00;;;;;19.99;52.93;100913.44;5060011;27;46916;-75
2022/08/21 00:23:15;;;;;;;;;4.25;3.25;;;;;20.01;53.24;100916.94;5078945;27;45560;-76
2022/08/21 00:25:42;;;;;;;;;5.50;5.50;;;;;19.96;53.54;100915.44;5077005;27;45474;-75
2022/08/21 00:28:08;;;;;;;;;6.50;4.50;;;;;19.90;53.67;100910.41;5075139;27;45544;-76
2022/08/21 00:30:34;;;;;;;;;3.00;3.00;;;;;19.89;53.82;100917.59;5076012;27;45455;-75
2022/08/21 00:33:00;;;;;;;;;3.25;3.25;;;;;19.83;54.07;100920.56;5076450;27;45546;-76
2022/08/21 00:35:31;;;;;;;;;6.25;3.50;;;;;19.75;54.27;100912.06;5075854;27;45488;-75
2022/08/21 00:37:57;;;;;;;;;3.25;3.25;;;;;19.67;54.60;100905.28;5076988;27;45294;-76
2022/08/21 00:40:50;;;;;;;;;3.00;3.00;;;;;19.65;54.99;100906.31;5075139;27;45382;-76
2022/08/21 00:43:20;;;;;;;;;4.50;2.00;;;;;19.59;55.19;100907.50;5072890;27;45422;-75
2022/08/21 00:45:45;;;;;;;;;6.75;3.00;;;;;19.55;55.22;100903.25;5075394;28;45384;-76
2022/08/21 00:48:11;;;;;;;;;3.00;3.00;;;;;19.51;55.33;100912.38;5075291;27;45536;-75
2022/08/21 00:50:41;;;;;;;;;2.75;2.00;;;;;19.49;55.18;100906.25;5056966;27;47866;-76
2022/08/21 00:53:09;;;;;;;;;4.00;4.00;;;;;19.48;55.51;100916.09;5075331;27;45627;-76
2022/08/21 00:55:36;;;;;;;;;5.50;3.00;;;;;19.47;55.42;100909.00;5077988;27;45583;-78
2022/08/21 00:58:05;;;;;;;;;2.00;2.00;;;;;19.44;55.44;100906.47;5077043;27;45504;-75
2022/08/21 01:00:33;;;;;;;;;2.25;2.25;;;;;19.41;55.63;100903.09;5075487;27;45446;-76
2022/08/21 01:03:01;;;;;;;;;1.00;1.00;;;;;19.45;55.50;100907.34;5062194;27;45563;-74
2022/08/21 01:05:27;;;;;;;;;3.25;1.75;;;;;19.44;55.43;100911.00;5076645;27;45489;-76
2022/08/21 01:07:56;;;;;;;;;2.00;1.75;;;;;19.39;55.61;100902.28;5074833;27;45534;-76
2022/08/21 01:10:23;;;;;;;;;3.25;2.00;;;;;19.38;55.79;100903.25;5075486;27;45568;-75
2022/08/21 01:12:50;;;;;;;;;3.25;2.25;;;;;19.30;55.79;100895.63;5075571;27;45475;-76
2022/08/21 01:15:18;;;;;;;;;4.00;2.00;;;;;19.35;55.72;100909.66;5075971;27;45386;-76
2022/08/21 01:17:43;;;;;;;;;3.25;2.50;;;;;19.32;55.95;100909.81;5075025;27;45502;-75
2022/08/21 01:20:11;;;;;;;;;7.25;2.75;;;;;19.30;56.02;100906.34;5072681;27;45480;-75
2022/08/21 01:22:37;;;;;;;;;1.50;1.50;;;;;19.27;55.90;100899.31;5080324;27;45512;-75
2022/08/21 01:25:09;;;;;;;;;2.00;2.00;;;;;19.29;55.95;100908.13;5078389;27;45280;-77
2022/08/21 01:27:35;;;;;;;;;3.00;2.00;;;;;19.24;56.31;100904.84;5076411;27;45465;-74
2022/08/21 01:30:23;;;;;;;;;4.00;3.00;;;;;19.24;56.30;100912.88;5061051;27;47228;-76
2022/08/21 01:32:49;;;;;;;;;2.75;1.25;;;;;19.08;56.51;100890.47;5076442;27;45702;-76
2022/08/21 01:35:17;;;;;;;;;2.75;2.00;;;;;19.20;56.39;100919.31;5073360;28;45527;-75
2022/08/21 01:37:43;;;;;;;;;2.50;2.00;;;;;19.18;56.11;100923.91;5076122;27;45596;-76
2022/08/21 01:40:11;;;;;;;;;2.00;2.00;;;;;19.16;56.82;100918.63;5074985;27;46212;-76
2022/08/21 01:42:37;;;;;;;;;5.00;5.00;;;;;19.14;56.99;100925.00;5073576;27;45430;-75
2022/08/21 01:45:05;;;;;;;;;2.00;2.00;;;;;19.12;56.80;100918.84;5076897;27;45302;-75
2022/08/21 01:47:30;;;;;;;;;2.75;2.75;;;;;19.08;57.16;100917.25;5072157;28;45429;-76
2022/08/21 01:49:56;;;;;;;;;6.50;4.00;;;;;19.07;57.27;100918.19;5073886;27;46096;-74
2022/08/21 01:52:21;;;;;;;;;4.50;3.75;;;;;19.03;57.39;100911.28;5073481;27;45798;-75
2022/08/21 01:54:47;;;;;;;;;2.50;2.50;;;;;19.02;57.89;100915.75;5055147;27;45823;-76
2022/08/21 01:57:13;;;;;;;;;2.25;2.25;;;;;18.95;56.98;100903.63;5080836;27;45624;-75
2022/08/21 01:59:39;;;;;;;;;3.25;2.00;;;;;18.98;57.26;100912.38;5073936;27;46085;-75
2022/08/21 02:02:05;;;;;;;;;2.00;2.00;;;;;18.95;57.19;100906.31;5073966;27;45547;-75
2022/08/21 02:04:30;;;;;;;;;1.00;1.00;;;;;18.95;57.19;100906.31;5075933;27;45442;-75
2022/08/21 02:06:56;;;;;;;;;2.50;2.50;;;;;18.90;57.13;100905.66;5054529;27;45351;-75
2022/08/21 02:09:22;;;;;;;;;1.50;1.00;;;;;18.83;57.28;100905.94;5072978;27;45311;-75
2022/08/21 02:11:47;;;;;;;;;1.00;1.00;;;;;18.79;57.70;100906.16;5072777;27;45667;-75
2022/08/21 02:14:15;;;;;;;;;1.00;1.00;;;;;18.70;57.62;100901.25;5076426;27;45434;-75
2022/08/21 02:16:42;;;;;;;;;2.00;2.00;;;;;18.68;57.82;100895.13;5074482;27;45486;-75
2022/08/21 02:19:08;;;;;;;;;2.50;2.00;;;;;18.68;58.14;100904.00;5074311;27;46086;-76
2022/08/21 02:21:33;;;;;;;;;2.50;2.25;;;;;18.70;58.28;100890.56;5074380;27;45510;-75
2022/08/21 02:23:59;;;;;;;;;2.00;2.00;;;;;18.68;58.37;100887.09;5074093;27;45938;-75
2022/08/21 02:26:25;;;;;;;;;3.00;3.00;;;;;18.69;58.53;100894.16;5073121;27;45695;-76
2022/08/21 02:28:50;;;;;;;;;1.25;1.25;;;;;18.64;58.39;100897.94;5077024;27;45397;-73
2022/08/21 02:31:15;;;;;;;;;2.00;2.00;;;;;18.62;58.34;100889.09;5073406;27;45631;-73
2022/08/21 02:33:41;;;;;;;;;1.00;1.00;;;;;18.59;58.27;100891.94;5073515;27;45404;-74
2022/08/21 02:36:08;;;;;;;;;1.50;1.50;;;;;18.54;58.33;100896.66;5088028;27;45374;-76
2022/08/21 02:38:38;;;;;;;;;4.25;2.25;;;;;18.51;58.41;100891.44;5074846;27;45683;-75
2022/08/21 02:41:08;;;;;;;;;2.50;1.00;;;;;18.49;58.82;100897.81;5085376;27;45558;-75
2022/08/21 02:43:34;;;;;;;;;1.25;1.25;;;;;18.48;58.66;100896.94;5079957;27;45437;-74
2022/08/21 02:46:02;;;;;;;;;1.75;1.25;;;;;18.45;59.03;100897.97;5073981;28;45368;-75
2022/08/21 02:48:30;;;;;;;;;3.75;1.00;;;;;18.44;58.69;100895.34;5074105;27;45483;-75
2022/08/21 02:51:08;;;;;;;;;1.25;1.25;;;;;18.43;58.88;100893.59;5082369;27;45330;-75
2022/08/21 02:53:34;;;;;;;;;1.50;1.50;;;;;18.40;59.31;100894.66;5074391;27;45617;-75
2022/08/21 02:56:02;;;;;;;;;1.00;1.00;;;;;18.44;58.96;100906.06;5080488;27;45525;-74
2022/08/21 02:58:31;;;;;;;;;2.00;2.00;;;;;18.40;59.02;100901.78;5078760;27;45387;-75
2022/08/21 03:00:58;;;;;;;;;2.00;2.00;;;;;18.41;59.24;100907.06;5076517;27;45625;-75
2022/08/21 03:03:24;;;;;;;;;2.25;2.25;;;;;18.40;59.26;100899.09;5077013;27;45443;-75
2022/08/21 03:05:49;;;;;;;;;2.00;2.00;;;;;18.37;59.54;100905.50;5073363;27;45461;-75
2022/08/21 03:08:15;;;;;;;;;1.00;1.00;;;;;18.36;59.87;100900.22;5086668;27;45532;-75
2022/08/21 03:10:44;;;;;;;;;2.50;2.50;;;;;18.34;59.72;100896.72;5075877;27;45505;-75
2022/08/21 03:13:10;;;;;;;;;2.75;1.75;;;;;18.26;59.76;100892.59;5073059;27;45469;-75
2022/08/21 03:15:36;;;;;;;;;2.00;2.00;;;;;18.32;60.15;100901.28;5073916;27;45482;-76
2022/08/21 03:18:04;;;;;;;;;2.00;2.00;;;;;18.31;60.03;100899.53;5073923;27;46140;-74
2022/08/21 03:20:30;;;;;;;;;2.50;2.50;;;;;18.28;59.68;100893.41;5079753;27;45532;-73
2022/08/21 03:22:58;;;;;;;;;5.75;2.00;;;;;18.29;60.02;100899.63;5073786;27;45597;-73
2022/08/21 03:25:25;;;;;;;;;2.00;2.00;;;;;18.28;59.89;100901.44;5078462;27;45590;-74
2022/08/21 03:27:51;;;;;;;;;3.75;3.50;;;;;18.27;59.72;100888.13;5072067;27;45454;-73
2022/08/21 03:30:18;;;;;;;;;4.25;3.00;;;;;18.27;59.97;100886.31;5075157;27;45438;-72
2022/08/21 03:32:44;;;;;;;;;2.00;2.00;;;;;18.25;59.86;100885.53;5071914;27;45378;-74
2022/08/21 03:35:09;;;;;;;;;4.75;2.00;;;;;18.25;60.27;100882.84;5071814;27;45534;-74
2022/08/21 03:37:35;;;;;;;;;3.25;2.25;;;;;18.25;60.10;100880.19;5071566;27;46300;-74
2022/08/21 03:40:03;;;;;;;;;3.75;2.00;;;;;18.17;60.23;100860.94;5074115;27;45484;-74
2022/08/21 03:42:28;;;;;;;;;2.75;1.75;;;;;18.21;60.50;100869.69;5077182;27;45478;-73
2022/08/21 03:44:53;;;;;;;;;1.50;1.50;;;;;18.17;60.51;100860.94;5071136;28;45618;-74
2022/08/21 03:47:19;;;;;;;;;3.00;1.75;;;;;18.17;60.49;100866.28;5071589;27;45465;-76
2022/08/21 03:49:44;;;;;;;;;5.00;3.00;;;;;18.10;60.70;100854.16;5072802;27;45861;-74
2022/08/21 03:52:09;;;;;;;;;3.00;1.25;;;;;18.13;60.75;100859.38;5073417;27;45647;-73
2022/08/21 03:54:35;;;;;;;;;2.00;2.00;;;;;18.11;60.45;100850.53;5078769;27;45477;-73
2022/08/21 03:57:00;;;;;;;;;2.75;2.75;;;;;18.09;60.67;100858.63;5077778;27;45479;-73
2022/08/21 03:59:26;;;;;;;;;2.50;2.50;;;;;18.04;60.93;100849.09;5075334;28;45561;-74
2022/08/21 04:01:56;;;;;;;;;4.25;2.00;;;;;18.05;61.16;100856.16;5080998;27;45841;-74
2022/08/21 04:04:22;;;;;;;;;3.25;2.50;;;;;17.99;61.37;100848.44;5077926;27;45468;-74
2022/08/21 04:06:49;;;;;;;;;5.75;2.75;;;;;17.98;61.61;100847.56;5076776;27;45530;-75
2022/08/21 04:09:14;;;;;;;;;1.50;1.00;;;;;17.98;61.67;100854.75;5076549;27;45542;-75
2022/08/21 04:11:39;;;;;;;;;2.25;2.25;;;;;17.93;62.01;100857.59;5077944;27;45260;-73
2022/08/21 04:14:04;;;;;;;;;1.75;1.75;;;;;17.89;62.02;100851.53;5078772;27;45497;-74
2022/08/21 04:16:30;;;;;;;;;3.00;3.00;;;;;17.85;62.39;100841.88;5076462;28;45259;-74
2022/08/21 04:18:56;;;;;;;;;3.00;2.00;;;;;17.83;62.57;100848.25;5074964;27;45457;-73
2022/08/21 04:21:22;;;;;;;;;3.00;3.00;;;;;17.81;62.51;100850.13;5078635;27;45549;-76
2022/08/21 04:23:48;;;;;;;;;2.75;2.75;;;;;17.82;62.74;100854.53;5055606;27;45425;-75
2022/08/21 04:26:13;;;;;;;;;2.75;2.75;;;;;17.83;62.57;100862.47;5075233;27;46366;-78
2022/08/21 04:28:38;;;;;;;;;2.50;2.50;;;;;17.82;62.41;100866.09;5076036;27;45501;-75
2022/08/21 04:31:04;;;;;;;;;4.50;2.00;;;;;17.80;62.35;100878.66;5076880;27;45837;-75
2022/08/21 04:33:29;;;;;;;;;1.75;1.75;;;;;17.79;62.48;100881.41;5079913;27;45531;-75
2022/08/21 04:35:54;;;;;;;;;2.50;1.75;;;;;17.77;62.34;100879.66;5076417;27;46057;-75
2022/08/21 04:38:20;;;;;;;;;2.75;2.75;;;;;17.75;62.05;100870.84;5076655;27;45597;-75
2022/08/21 04:40:48;;;;;;;;;2.25;2.25;;;;;17.82;62.13;100882.13;5075837;27;45430;-75
2022/08/21 04:43:14;;;;;;;;;2.25;2.00;;;;;17.82;61.96;100875.91;5075309;27;45578;-76
2022/08/21 04:45:42;;;;;;;;;2.00;2.00;;;;;17.86;61.83;100875.72;5081710;27;46556;-77
2022/08/21 04:48:11;;;;;;;;;4.00;4.00;;;;;17.86;62.12;100883.72;5056754;28;45373;-75
2022/08/21 04:50:56;;;;;;;;;3.00;2.00;;;;;17.87;62.07;100890.81;5075664;28;45367;-75
2022/08/21 04:53:30;;;;;;;;;3.00;2.00;;;;;17.88;62.13;100887.19;5075591;27;45537;-75
2022/08/21 04:56:00;;;;;;;;;4.00;4.00;;;;;17.90;62.05;100890.72;5064735;28;46982;-75
2022/08/21 04:58:27;;;;;;;;;4.75;3.00;;;;;17.92;61.81;100891.50;5057101;27;45486;-76
2022/08/21 05:00:57;;;;;;;;;3.25;3.25;;;;;17.98;61.83;100892.19;5078732;27;45847;-75
2022/08/21 05:03:23;;;;;;;;;5.25;5.25;;;;;18.05;61.69;100888.25;5083118;27;45430;-75
2022/08/21 05:05:49;;;;;;;;;4.75;4.50;;;;;18.26;61.34;100889.06;5073438;28;45580;-75
2022/08/21 05:08:21;;;;;;;;;7.25;3.75;;;;;18.54;60.66;100901.13;5076145;27;45597;-75
2022/08/21 05:10:47;;;;;;;;;7.75;5.00;;;;;18.83;59.60;100892.53;5073646;27;45695;-76
2022/08/21 05:13:13;;;;;;;;;6.00;4.50;;;;;19.16;58.84;100893.63;5075491;27;45619;-75
2022/08/21 05:15:40;;;;;;;;;2.50;2.50;;;;;19.56;57.59;100888.91;5079200;27;46336;-76
2022/08/21 05:18:06;;;;;;;;;6.50;6.50;;;;;19.77;56.88;100886.00;5057196;28;45513;-74
2022/08/21 05:20:34;;;;;;;;;2.00;2.00;;;;;19.75;56.77;100879.88;5074534;27;45418;-76
2022/08/21 05:23:00;;;;;;;;;2.00;2.00;;;;;19.71;56.50;100885.41;5076876;27;45670;-76
2022/08/21 05:25:26;;;;;;;;;6.75;4.50;;;;;19.61;56.76;100876.09;5073580;27;45504;-75
2022/08/21 05:27:53;;;;;;;;;2.50;2.50;;;;;19.57;56.92;100887.97;5077542;27;45552;-75
2022/08/21 05:30:19;;;;;;;;;6.00;6.00;;;;;19.47;57.43;100884.03;5082955;27;45417;-75
2022/08/21 05:32:45;;;;;;;;;4.00;3.00;;;;;19.41;57.35;100890.56;5082349;27;45377;-75
2022/08/21 05:35:11;;;;;;;;;6.00;3.50;;;;;19.37;57.42;100891.66;5084773;27;45543;-75
2022/08/21 05:37:37;;;;;;;;;7.50;5.50;;;;;19.34;57.72;100882.00;5085051;27;45854;-76
2022/08/21 05:40:04;;;;;;;;;4.25;4.25;;;;;19.38;58.29;100887.19;5081517;27;45502;-74
2022/08/21 05:42:29;;;;;;;;;4.25;4.00;;;;;19.38;57.77;100877.31;5058394;27;45486;-76
2022/08/21 05:44:54;;;;;;;;;3.25;2.50;;;;;19.74;56.81;100878.13;5074322;27;45997;-75
2022/08/21 05:47:20;;;;;;;;;5.00;3.00;;;;;20.10;56.13;100882.47;5074184;27;45640;-75
2022/08/21 05:49:45;;;;;;;;;3.00;3.00;;;;;20.35;55.63;100888.22;5074567;27;45476;-74
2022/08/21 05:52:10;;;;;;;;;6.25;4.00;;;;;20.53;54.70;100882.78;5059635;27;45576;-74
2022/08/21 05:54:37;;;;;;;;;3.00;2.50;;;;;21.00;53.51;100889.94;5076066;27;45499;-73
2022/08/21 05:57:02;;;;;;;;;2.00;2.00;;;;;21.77;52.33;100877.25;5076668;27;45462;-74
2022/08/21 05:59:28;;;;;;;;;5.75;3.75;;;;;22.45;49.77;100875.66;5073762;27;45721;-74
2022/08/21 06:01:53;;;;;;;;;3.00;3.00;;;;;22.76;48.72;100870.97;5070515;27;45654;-75
2022/08/21 06:04:19;;;;;;;;;3.75;3.75;;;;;23.54;47.89;100872.00;5076187;27;45449;-74
2022/08/21 06:06:44;;;;;;;;;4.00;2.50;;;;;24.57;46.27;100872.72;5073393;27;45434;-74
2022/08/21 06:09:09;;;;;;;;;3.00;3.00;;;;;25.50;44.32;100876.56;5087983;27;45361;-74
2022/08/21 06:11:35;;;;;;;;;3.00;3.00;;;;;26.13;42.48;100854.47;5080122;27;45441;-74
2022/08/21 06:14:01;;;;;;;;;3.00;3.00;;;;;26.95;40.65;100870.28;5074573;27;45510;-75
2022/08/21 06:16:27;;;;;;;;;2.00;2.00;;;;;27.45;39.84;100876.00;5080078;27;45608;-74
2022/08/21 06:18:52;;;;;;;;;2.50;2.50;;;;;27.87;37.35;100882.34;5074678;27;45529;-74
2022/08/21 06:21:18;;;;;;;;;5.50;2.00;;;;;28.35;36.85;100877.13;5075797;27;45547;-76
2022/08/21 06:23:44;;;;;;;;;3.00;2.50;;;;;28.92;36.42;100871.06;5081176;27;45435;-75
2022/08/21 06:26:11;;;;;;;;;3.00;3.00;;;;;29.36;34.72;100868.75;5074648;27;45504;-74
2022/08/21 06:28:37;;;;;;;;;4.00;3.00;;;;;29.87;34.34;100861.19;5073791;27;45651;-73
2022/08/21 06:31:20;;;;;;;;;3.00;2.25;;;;;30.51;34.11;100853.13;5073921;27;45531;-75
2022/08/21 06:33:47;;;;;;;;;4.00;4.00;;;;;30.93;32.96;100849.78;5072636;27;46074;-76
2022/08/21 06:36:13;;;;;;;;;3.00;2.25;;;;;31.56;32.16;100850.66;5057487;27;45541;-74
2022/08/21 06:38:39;;;;;;;;;2.00;2.00;;;;;31.95;31.00;100857.53;5074501;27;45593;-75
2022/08/21 06:41:04;;;;;;;;;3.75;3.75;;;;;32.25;30.41;100856.13;5054451;27;45552;-76
2022/08/21 06:43:30;;;;;;;;;3.50;2.25;;;;;32.47;29.74;100853.81;5072018;27;46664;-76
2022/08/21 06:45:56;;;;;;;;;3.00;3.00;;;;;32.17;29.74;100837.81;5076384;27;45371;-75
2022/08/21 06:48:22;;;;;;;;;3.50;2.25;;;;;32.28;30.00;100835.78;5073895;27;45379;-78
2022/08/21 06:50:47;;;;;;;;;2.25;2.00;;;;;32.52;29.52;100827.63;5073290;27;45440;-77
2022/08/21 06:53:15;;;;;;;;;5.75;4.00;;;;;32.84;29.20;100833.34;5072466;27;46200;-77
2022/08/21 06:55:42;;;;;;;;;2.00;2.00;;;;;33.04;29.11;100823.78;5076395;27;45465;-76
2022/08/21 06:58:08;;;;;;;;;4.00;3.00;;;;;33.58;28.50;100825.94;5079414;27;45552;-75
2022/08/21 07:00:37;;;;;;;;;3.00;2.00;;;;;33.82;27.43;100825.03;5075475;27;45511;-75
2022/08/21 07:03:03;;;;;;;;;4.25;3.00;;;;;34.07;28.52;100824.91;5073963;27;45509;-75
2022/08/21 07:05:31;;;;;;;;;4.00;3.25;;;;;34.12;27.46;100827.97;5055583;27;45459;-77
2022/08/21 07:07:57;;;;;;;;;3.25;2.50;;;;;34.25;26.86;100832.06;5075080;27;45527;-76
2022/08/21 07:10:24;;;;;;;;;4.00;3.00;;;;;34.32;27.61;100833.06;5075492;27;45447;-76
2022/08/21 07:12:50;;;;;;;;;3.25;3.00;;;;;34.57;26.43;100821.91;5075810;27;45438;-75
2022/08/21 07:15:16;;;;;;;;;2.00;2.00;;;;;33.75;26.91;100820.44;5072469;27;45448;-75
2022/08/21 07:17:42;;;;;;;;;3.50;3.00;;;;;32.87;28.47;100827.53;5072809;27;45292;-75
2022/08/21 07:20:08;;;;;;;;;3.00;2.00;;;;;32.44;29.25;100832.25;5075412;27;45462;-75
2022/08/21 07:22:37;;;;;;;;;2.00;2.00;;;;;31.84;29.63;100834.06;5058194;27;45740;-76
2022/08/21 07:25:04;;;;;;;;;3.00;3.00;;;;;31.24;30.62;100833.00;5072991;27;45442;-76
2022/08/21 07:27:29;;;;;;;;;5.00;5.00;;;;;30.95;31.46;100836.00;5075127;27;45367;-76
2022/08/21 07:29:54;;;;;;;;;3.50;3.50;;;;;31.05;31.06;100835.91;5076371;27;45413;-76
2022/08/21 07:32:20;;;;;;;;;3.25;3.25;;;;;31.55;31.01;100838.00;5072267;27;45513;-75
2022/08/21 07:34:45;;;;;;;;;3.25;2.75;;;;;32.44;30.38;100843.19;5074901;27;45612;-77
2022/08/21 07:37:10;;;;;;;;;2.75;2.75;;;;;32.93;28.76;100824.13;5078821;27;45500;-76
2022/08/21 07:39:36;;;;;;;;;2.75;2.75;;;;;33.24;28.33;100823.47;5080781;27;45607;-75
2022/08/21 07:42:02;;;;;;;;;3.00;3.00;;;;;33.68;28.00;100822.13;5074989;27;45557;-77
2022/08/21 07:44:28;;;;;;;;;3.25;3.25;;;;;34.27;28.03;100819.00;5077079;27;45448;-77
2022/08/21 07:46:53;;;;;;;;;3.00;2.00;;;;;34.81;26.47;100820.91;5085860;27;45665;-73
2022/08/21 07:49:19;;;;;;;;;2.00;2.00;;;;;34.68;27.49;100824.22;5077869;27;45497;-77
2022/08/21 07:51:44;;;;;;;;;2.00;2.00;;;;;35.01;25.76;100819.34;5059441;28;48107;-85
2022/08/21 07:54:09;;;;;;;;;2.00;2.00;;;;;35.29;25.41;100826.16;5075184;27;45965;-77
2022/08/21 07:56:35;;;;;;;;;4.00;3.00;;;;;34.55;25.46;100829.47;5081760;27;45414;-75
2022/08/21 07:59:02;;;;;;;;;3.00;3.00;;;;;34.04;26.76;100813.47;5079957;27;45808;-77
2022/08/21 08:01:27;;;;;;;;;3.25;2.00;;;;;33.68;27.64;100819.38;5082213;27;45913;-77
2022/08/21 08:03:53;;;;;;;;;4.00;4.00;;;;;33.84;26.65;100822.09;5073017;27;45463;-77
2022/08/21 08:06:19;;;;;;;;;3.25;3.25;;;;;33.83;26.99;100823.16;5081008;27;45552;-76
2022/08/21 08:08:44;;;;;;;;;2.00;2.00;;;;;34.07;28.19;100813.09;5083369;27;45540;-76
2022/08/21 08:11:11;;;;;;;;;4.00;2.25;;;;;34.12;26.85;100814.28;5078542;27;45956;-77
2022/08/21 08:13:42;;;;;;;;;4.00;3.00;;;;;33.76;26.89;100812.03;5093052;27;45349;-81
2022/08/21 08:16:08;;;;;;;;;2.25;2.25;;;;;33.52;27.24;100820.31;5090059;27;45573;-77
2022/08/21 08:18:33;;;;;;;;;3.50;2.50;;;;;33.33;27.46;100816.94;5073085;27;45583;-80
2022/08/21 08:20:59;;;;;;;;;3.50;2.25;;;;;33.18;27.90;100807.69;5080216;27;45515;-74
2022/08/21 08:23:25;;;;;;;;;3.00;3.00;;;;;32.90;28.67;100799.84;5076549;27;45489;-76
2022/08/21 08:25:50;;;;;;;;;3.00;3.00;;;;;32.51;28.94;100814.13;5077555;27;45394;-79
2022/08/21 08:28:15;;;;;;;;;3.00;3.00;;;;;32.36;29.29;100817.53;5083939;27;45395;-74
2022/08/21 08:30:42;;;;;;;;;4.25;2.00;;;;;32.13;30.30;100813.72;5075130;27;47249;-75
2022/08/21 08:33:07;;;;;;;;;5.25;4.50;;;;;31.88;29.68;100800.78;5077946;27;45499;-76
2022/08/21 08:35:33;;;;;;;;;3.00;3.00;;;;;31.81;29.95;100816.13;5090141;27;45501;-77
2022/08/21 08:37:58;;;;;;;;;5.25;4.00;;;;;31.46;30.29;100803.44;5082932;27;45665;-76
2022/08/21 08:40:45;;;;;;;;;3.00;3.00;;;;;31.38;30.89;100811.59;5083691;27;45472;-77
2022/08/21 08:43:13;;;;;;;;;3.00;3.00;;;;;31.08;30.48;100800.13;5075127;27;45439;-77
2022/08/21 08:45:44;;;;;;;;;3.50;1.50;;;;;30.72;31.09;100805.63;5078180;27;45400;-78
2022/08/21 08:48:14;;;;;;;;;3.75;3.75;;;;;30.58;31.67;100816.06;5054634;28;45346;-77
2022/08/21 08:51:14;;;;;;;;;4.00;4.00;;;;;30.29;33.44;100814.38;5077008;27;46281;-77
2022/08/21 08:53:59;;;;;;;;;2.00;2.00;;;;;30.03;33.30;100802.47;5056914;27;45512;-78
2022/08/21 08:56:30;;;;;;;;;3.00;3.00;;;;;30.35;33.68;100807.44;5073244;27;45527;-77
2022/08/21 08:59:01;;;;;;;;;3.00;3.00;;;;;30.55;32.41;100807.31;5074170;27;45635;-78
2022/08/21 09:01:27;;;;;;;;;5.00;4.00;;;;;30.41;32.67;100804.16;5079126;27;46265;-77
2022/08/21 09:03:52;;;;;;;;;4.50;3.00;;;;;30.24;32.27;100800.34;5085554;27;45470;-77
2022/08/21 09:06:42;;;;;;;;;4.00;3.00;;;;;30.39;32.59;100803.41;5080420;27;45989;-77
2022/08/21 09:09:31;;;;;;;;;5.00;4.00;;;;;30.56;32.96;100792.69;5061940;27;45850;-77
2022/08/21 09:12:03;;;;;;;;;4.50;4.50;;;;;31.08;32.29;100800.13;5075036;27;46316;-78
2022/08/21 09:14:52;;;;;;;;;2.50;2.50;;;;;31.45;31.35;100793.56;5082687;27;44825;-76
2022/08/21 09:17:40;;;;;;;;;3.00;3.00;;;;;31.44;29.90;100787.22;5073673;27;45473;-77
2022/08/21 09:20:35;;;;;;;;;4.00;3.75;;;;;31.40;30.94;100779.53;5072364;27;45473;-75
2022/08/21 09:23:15;;;;;;;;;6.50;2.75;;;;;31.35;31.06;100778.16;5073121;28;45440;-76
2022/08/21 09:26:11;;;;;;;;;2.00;2.00;;;;;31.53;29.57;100780.78;5077066;27;45585;-76
2022/08/21 09:28:37;;;;;;;;;4.00;2.00;;;;;31.46;29.53;100770.69;5075859;27;45703;-76
2022/08/21 09:31:08;;;;;;;;;4.00;4.00;;;;;31.55;29.62;100775.19;5074531;27;45528;-77
2022/08/21 09:33:34;;;;;;;;;6.00;2.00;;;;;31.51;29.51;100773.81;5084548;27;45398;-76
2022/08/21 09:35:59;;;;;;;;;2.00;2.00;;;;;31.32;29.66;100778.47;5050831;27;45620;-76
2022/08/21 09:38:37;;;;;;;;;2.00;2.00;;;;;31.04;29.38;100774.19;5076258;27;45402;-75
2022/08/21 09:41:09;;;;;;;;;4.00;3.50;;;;;30.89;29.62;100776.63;5056455;28;45612;-77
2022/08/21 09:43:37;;;;;;;;;1.50;1.50;;;;;30.92;30.00;100779.03;5075128;27;45472;-76
2022/08/21 09:46:09;;;;;;;;;2.00;1.00;;;;;31.27;29.21;100780.81;5078405;27;45493;-75
2022/08/21 09:48:47;;;;;;;;;3.25;3.25;;;;;31.52;29.19;100780.94;5069732;27;45429;-75
2022/08/21 09:51:17;;;;;;;;;2.75;2.75;;;;;31.82;29.01;100778.75;5078330;27;45480;-75
2022/08/21 09:53:47;;;;;;;;;3.00;3.00;;;;;32.30;29.04;100785.41;5085355;27;45404;-76
2022/08/21 09:59:26;;;;;;;;;3.00;2.75;;;;;32.76;27.59;100777.59;5076336;27;45408;-77
2022/08/21 10:01:53;;;;;;;;;3.00;3.00;;;;;32.74;27.85;100768.72;5065700;27;45537;-77
2022/08/21 10:04:29;;;;;;;;;2.25;2.25;;;;;32.71;27.72;100762.75;5068997;27;46253;-76
2022/08/21 10:06:54;;;;;;;;;4.00;2.50;;;;;32.73;28.01;100750.59;5070525;27;45553;-76
2022/08/21 10:09:21;;;;;;;;;2.25;2.25;;;;;32.13;28.64;100759.03;5072577;27;45427;-75
2022/08/21 10:12:23;;;;;;;;;3.00;3.00;;;;;32.20;28.83;100743.69;5066745;27;45630;-77
2022/08/21 10:15:21;;;;;;;;;3.25;3.00;;;;;32.57;28.89;100745.13;5074659;27;46586;-76
2022/08/21 10:17:49;;;;;;;;;2.00;2.00;;;;;32.89;27.76;100732.47;5072784;27;45375;-76
2022/08/21 10:20:33;;;;;;;;;5.00;3.25;;;;;33.11;27.85;100734.47;5071713;28;45477;-76
2022/08/21 10:23:20;;;;;;;;;4.00;4.00;;;;;32.85;28.40;100737.41;5071809;27;45777;-76
2022/08/21 10:26:00;;;;;;;;;3.00;3.00;;;;;32.38;28.29;100725.25;5072360;27;45517;-77
2022/08/21 10:29:00;;;;;;;;;3.75;2.25;;;;;31.53;29.03;100726.19;5072154;27;45617;-77
2022/08/21 10:32:10;;;;;;;;;3.75;3.75;;;;;31.09;30.14;100725.47;5069175;27;45484;-77
2022/08/21 10:34:44;;;;;;;;;1.00;1.00;;;;;30.64;30.35;100710.94;5023930;27;45368;-76
2022/08/21 10:37:18;;;;;;;;;4.00;2.25;;;;;30.29;31.44;100720.84;5070039;28;46227;-77
2022/08/21 10:39:50;;;;;;;;;2.25;2.00;;;;;30.03;33.05;100721.59;5071648;28;45480;-76
2022/08/21 10:42:44;;;;;;;;;1.75;1.50;;;;;29.60;31.77;100728.56;5068684;27;45592;-76
2022/08/21 10:45:14;;;;;;;;;3.75;2.75;;;;;28.97;32.66;100710.16;5064596;27;45579;-76
2022/08/21 10:47:55;;;;;;;;;3.00;3.00;;;;;29.09;33.18;100711.69;5054867;28;45737;-75
2022/08/21 10:50:39;;;;;;;;;2.25;2.25;;;;;29.33;33.14;100708.50;5054723;28;45895;-76
2022/08/21 10:53:19;;;;;;;;;2.50;2.00;;;;;29.68;32.77;100700.59;5047475;27;45526;-77
2022/08/21 10:55:45;;;;;;;;;3.50;2.00;;;;;30.01;32.15;100695.56;5074635;27;45476;-75
2022/08/21 10:58:17;;;;;;;;;2.50;1.50;;;;;30.08;31.94;100693.94;5077288;27;45420;-77
2022/08/21 11:00:51;;;;;;;;;1.50;1.00;;;;;30.07;31.89;100708.56;5077319;27;45577;-74
2022/08/21 11:03:19;;;;;;;;;3.50;1.00;;;;;29.96;31.08;100706.91;5058396;28;45668;-76
2022/08/21 11:05:55;;;;;;;;;4.50;2.75;;;;;29.99;31.81;100700.28;5072311;27;45435;-76
2022/08/21 11:08:29;;;;;;;;;1.50;1.50;;;;;30.16;31.46;100704.88;5072405;27;45511;-77
2022/08/21 11:11:03;;;;;;;;;2.00;2.00;;;;;30.19;31.45;100695.56;5074449;27;45487;-77
2022/08/21 11:13:43;;;;;;;;;5.00;3.75;;;;;30.11;31.71;100701.78;5076396;27;45416;-79
2022/08/21 11:16:36;;;;;;;;;3.25;3.00;;;;;30.03;32.22;100709.84;5060736;27;45378;-76
2022/08/21 11:19:04;;;;;;;;;3.00;2.00;;;;;29.91;31.76;100707.38;5071984;27;45462;-76
2022/08/21 11:21:53;;;;;;;;;2.00;2.00;;;;;29.66;32.83;100719.81;5070544;27;45470;-77
2022/08/21 11:24:40;;;;;;;;;3.00;2.50;;;;;29.63;32.85;100722.00;5072142;27;45443;-76
2022/08/21 11:27:45;;;;;;;;;3.00;2.00;;;;;29.53;33.84;100714.72;5080437;27;45593;-78
2022/08/21 11:30:12;;;;;;;;;1.00;1.00;;;;;29.43;33.86;100716.63;5020956;28;45559;-75
2022/08/21 11:32:52;;;;;;;;;1.00;1.00;;;;;29.52;34.50;100726.63;5012621;28;45418;-76
2022/08/21 11:35:47;;;;;;;;;2.25;1.25;;;;;30.28;32.83;100719.16;5010895;28;45559;-78
2022/08/21 11:38:34;;;;;;;;;2.50;2.00;;;;;30.90;31.36;100719.16;4994439;28;45431;-75